x

Buoy E01 - Central Maine Shelf (44032) Wave Buoy

1:04 - Wed 26th Nov 2014 All times are EST. -5 hours from GMT.

  • Sig Wave height 5.9ft
  • Peak Period 11s
  • Wind
    18mph, 22mph gusts
  • Sea Temp 50°f
  • Aire Temp 51°f
  • Sea Pressure 1018mb
  • Buoy E01 - Central Maine Shelf
  • Buoy E01 - Central Maine Shelf

More Historic Weather Station data

Upgrade to MSW Pro to gain access to the past 30 days of data for over 8000 Wavebouys and Weather Stations around the globe.

Join Pro

Comparision Forecast

View Surf forecast
   
mié 11/26 1:04 6ft 11s 18 22 mph 1018mb 50f 51f
12:04 6ft 11s 20 22 mph 1016.8mb 50f 51f
mar 11/25 11:04 6ft 11s 18 22 mph 1016.7mb 50f 51f
10:04 7ft 11s 18 22 mph 1015.7mb 51f 51f
9:04 7ft 11s 18 20 mph 1015mb 51f 51f
8:04 7ft 11s 22 27 mph 1013.9mb 51f 52f
7:04 8.5ft 11s 20 27 mph 1012.9mb 51f 53f
6:04 7.5ft 11s 20 25 mph 1012mb 51f 54f
5:04 7ft 11s 18 20 mph 1010.6mb 51f 55f
4:04 6ft 11s 13 16 mph 1009.5mb 51f 54f
3:04 6.5ft 11s 13 16 mph 1009.5mb 51f 53f
2:04 7ft 11s 16 18 mph 1008.9mb 51f 54f
1:04 7.5ft 11s 16 20 mph 1008.4mb 51f 53f
12:04 7ft 8s 16 18 mph 1008.3mb 51f 53f
11:04 8ft 11s 20 22 mph 1008mb 51f 56f
10:04 8ft 11s 20 25 mph 1008.2mb 51f 54f
9:04 10ft 11s 18 22 mph 1007.8mb 51f 55f
8:04 9.5ft 11s 20 25 mph 1007mb 51f 55f
7:04 9.5ft 11s 22 25 mph 1006.5mb 51f 55f
6:04 9ft 11s 20 22 mph 1005.2mb 51f 55f
5:04 10ft 11s 18 20 mph 1004.5mb 51f 54f
4:04 11.5ft 11s 20 25 mph 1004.2mb 51f 54f
3:04 9.5ft 11s 20 25 mph 1004mb 51f 54f
2:04  -   -  20 25 mph 1003.2mb 51f 56f
1:04 10.5ft 8s 18 22 mph 1002.3mb 51f 55f
12:04 11ft 8s 22 27 mph 1001.8mb 51f 56f
lun 11/24 11:04 11ft 8s 25 29 mph 1001.2mb 51f 55f
10:04 11ft 8s 25 29 mph 1000.7mb 51f 55f
9:04 11.5ft 8s 27 36 mph 1000.6mb 51f 55f
8:04 12ft 8s 27 34 mph 1001mb 51f 56f
7:04 11.5ft 8s 22 29 mph 1001.5mb 51f 56f
6:04 11ft 8s 29 40 mph 1000.6mb 51f 56f
5:04 13ft 8s 29 36 mph 1000.4mb 51f 56f
4:04 10.5ft 8s 25 34 mph 1001.1mb 51f 56f
3:04 10.5ft 8s 27 29 mph 1002mb 51f 55f
2:04 11ft 8s 29 36 mph 1002.5mb 51f 56f
1:04 10.5ft 8s 29 40 mph 1003.1mb 51f 56f
12:04 9ft 6s 31 40 mph 1004.3mb 51f 55f
11:04 8.5ft 6s 31 38 mph 1005.8mb 51f 54f
10:04 6.5ft 5s 31 38 mph 1008.3mb 51f 55f
9:04 5.5ft 5s 27 34 mph 1010.3mb 51f 54f
8:04 4.5ft 5s 20 22 mph 1013.1mb 50f 53f
7:04 3.5ft 5s 18 20 mph 1013.8mb 50f 52f
6:04 3.5ft 4s 16 20 mph 1015.4mb 50f 51f
5:04 3.5ft 5s 16 18 mph 1016.5mb 50f 51f
4:04 3ft 5s 16 18 mph 1017mb 50f 51f
3:04 3ft 8s 11 16 mph 1017.3mb 50f 51f
2:04 2ft 5s 13 16 mph 1018.2mb 50f 51f
1:04 2.5ft 6s 11 13 mph 1018.4mb 50f 51f
12:04 2.5ft 6s 9 11 mph 1018.9mb 50f 51f
dom 11/23 11:04 3ft 5s 9 11 mph 1019.4mb 50f 51f
10:04 2.5ft 6s 7 9 mph 1019.4mb 50f 51f
9:04 3.5ft 8s 9 11 mph 1019.7mb 50f 51f
8:04 3.5ft 6s 7
mph
1020.3mb 50f 51f
7:04 3.5ft 6s 7
mph
1019.8mb 50f 51f
6:04 4ft 6s 4 7 mph 1019.4mb 50f 50f
5:04 4ft 6s 4
mph
1018.7mb 50f 51f
4:04 4.5ft 6s 4 7 mph 1018.7mb 50f 51f
3:04 4.5ft 6s 11 13 mph 1018.3mb 50f 51f
2:04 4.5ft 6s 13 16 mph 1017.7mb 50f 50f
1:04 4.5ft 6s 13 16 mph 1017.3mb 50f 50f
12:04 5ft 8s 16 18 mph 1017mb 51f 49f
11:04 6ft 6s 16 20 mph 1017.7mb 51f 49f
10:04 6ft 8s 16 20 mph 1017.7mb 51f 49f
9:04 6ft 8s 18 22 mph 1017.1mb 50f 48f
8:04 7ft 8s 22 25 mph 1016.5mb 50f 48f
7:04 6.5ft 6s 22 27 mph 1015.7mb 50f 48f
6:04 7.5ft 8s 25 29 mph 1014.9mb 50f 47f
5:04 7.5ft 8s 27 31 mph 1014.7mb 50f 48f
4:04 8ft 6s 27 31 mph 1014.1mb 50f 48f
3:04 9ft 8s 25 31 mph 1013.7mb 50f 47f
2:04 9.5ft 8s 27 31 mph 1014mb 51f 47f
1:04 9.5ft 8s 29 34 mph 1013.6mb 51f 47f
12:04 9ft 8s 27 31 mph 1013.2mb 51f 47f
sáb 11/22 11:04 8.5ft 8s 31 36 mph 1013.3mb 51f 47f
10:04 9ft 8s 31 38 mph 1013.2mb 51f 46f
9:04 8.5ft 8s 29 38 mph 1013.6mb 51f 46f
8:04 8ft 8s 29 36 mph 1014.2mb 51f 46f
7:04 9ft 6s 31 36 mph 1014.8mb 51f 46f
6:04 8ft 6s 29 36 mph 1016mb 51f 46f
5:04 9ft 6s 29 38 mph 1016.8mb 51f 44f
4:04 9ft 6s 27 34 mph 1017mb 51f 42f
3:04 8ft 6s 27 34 mph 1017.8mb 51f 41f
2:04 8ft 6s 29 36 mph 1018.3mb 51f 40f
1:04 6.5ft 6s 31 38 mph 1019.4mb 51f 39f
12:04 5.5ft 5s 29 34 mph 1020.8mb 51f 37f
11:04 4.5ft 5s 25 29 mph 1022.3mb 51f 36f
10:04 3.5ft 5s 22 29 mph 1024.4mb 51f 35f
9:04 3.5ft 5s 20 25 mph 1025.4mb 51f 33f
8:04 2.5ft 4s 18 22 mph 1025.7mb 51f 32f